createdAt,value
2022-11-08T10:32:25.393Z,12.39
2022-11-08T10:35:02.503Z,12.48
2022-11-08T10:37:31.823Z,12.57
2022-11-08T10:40:03.937Z,12.79
2022-11-08T10:42:44.759Z,12.93
2022-11-08T10:45:11.424Z,13.08
2022-11-08T10:47:39.598Z,13.20
2022-11-08T10:50:19.808Z,13.28
2022-11-08T10:53:01.078Z,13.37
2022-11-08T10:55:38.648Z,13.60
2022-11-08T10:58:28.069Z,13.71
2022-11-08T11:01:01.861Z,13.69
2022-11-08T11:03:31.291Z,13.72
2022-11-08T11:05:59.269Z,13.78
2022-11-08T11:08:26.626Z,13.69
2022-11-08T11:10:53.262Z,13.68
2022-11-08T11:15:58.524Z,13.73
2022-11-08T11:18:45.495Z,13.79
2022-11-08T11:21:16.421Z,13.86
2022-11-08T11:23:51.828Z,13.89
2022-11-08T11:26:30.673Z,13.94
2022-11-08T11:29:13.697Z,14.04
2022-11-08T11:31:43.841Z,14.12
2022-11-08T11:34:19.273Z,14.17
2022-11-08T11:37:01.743Z,14.20
2022-11-08T11:39:42.678Z,14.16
2022-11-08T11:42:43.851Z,14.16
2022-11-08T11:45:16.987Z,14.24
2022-11-08T11:47:53.150Z,14.35
2022-11-08T11:50:38.322Z,14.34
2022-11-08T11:53:38.854Z,14.39
2022-11-08T11:56:08.912Z,14.50
2022-11-08T11:59:08.331Z,14.54
2022-11-08T12:01:47.194Z,14.60
2022-11-08T12:04:29.039Z,14.72
2022-11-08T12:07:04.722Z,14.73
2022-11-08T12:09:48.856Z,14.77
2022-11-08T12:12:30.594Z,14.77
2022-11-08T12:15:12.564Z,14.81
2022-11-08T12:18:03.652Z,14.92
2022-11-08T12:20:49.415Z,15.09
2022-11-08T12:23:18.832Z,15.21
2022-11-08T12:25:53.146Z,15.30
2022-11-08T12:28:31.255Z,15.31
2022-11-08T12:31:15.254Z,15.46
2022-11-08T12:34:02.599Z,15.61
2022-11-08T12:36:38.989Z,15.77
2022-11-08T12:39:16.991Z,15.97
2022-11-08T12:42:03.563Z,16.22
2022-11-08T12:44:32.736Z,16.39
2022-11-08T12:47:23.691Z,16.46
2022-11-08T12:50:25.421Z,16.63
2022-11-08T12:52:54.941Z,16.73
2022-11-08T12:55:30.219Z,16.65
2022-11-08T12:58:00.399Z,16.76
2022-11-08T13:00:29.703Z,17.07
2022-11-08T13:03:05.546Z,16.98
2022-11-08T13:05:39.254Z,17.15
2022-11-08T13:08:13.031Z,17.08
2022-11-08T13:10:53.109Z,16.90
2022-11-08T13:13:46.281Z,16.86
2022-11-08T13:16:23.519Z,17.17
2022-11-08T13:18:51.175Z,17.27
2022-11-08T13:21:31.240Z,16.90
2022-11-08T13:24:24.352Z,16.57
2022-11-08T13:27:25.755Z,16.47
2022-11-08T13:29:53.335Z,16.44
2022-11-08T13:32:44.062Z,16.19
2022-11-08T13:35:33.278Z,16.67
2022-11-08T13:38:00.099Z,16.91
2022-11-08T13:40:32.458Z,17.23
2022-11-08T13:43:19.800Z,16.67
2022-11-08T13:45:47.118Z,16.38
2022-11-08T13:48:26.126Z,16.60
2022-11-08T13:50:52.928Z,16.45
2022-11-08T13:53:19.473Z,16.37
2022-11-08T13:55:48.771Z,16.23
2022-11-08T13:58:33.336Z,16.02
2022-11-08T14:01:01.886Z,15.80
2022-11-08T14:03:34.667Z,16.08
2022-11-08T14:06:06.164Z,16.16
2022-11-08T14:08:38.521Z,15.83
2022-11-08T14:11:16.444Z,15.80
2022-11-08T14:14:01.685Z,15.72
2022-11-08T14:16:41.893Z,15.50
2022-11-08T14:19:23.006Z,15.56
2022-11-08T14:21:55.400Z,15.37
2022-11-08T14:24:25.678Z,15.37
2022-11-08T14:26:53.083Z,15.24
2022-11-08T14:29:23.039Z,15.03
2022-11-08T14:32:01.986Z,14.86
2022-11-08T14:34:38.179Z,14.75
2022-11-08T14:37:13.223Z,14.89
2022-11-08T14:39:39.955Z,14.71
2022-11-08T14:42:18.877Z,14.66
2022-11-08T14:44:46.236Z,14.50
2022-11-08T14:47:30.368Z,14.39
2022-11-08T14:49:58.914Z,14.32
2022-11-08T14:52:29.631Z,14.18
2022-11-08T14:55:08.185Z,14.10
2022-11-08T14:57:37.313Z,13.88
2022-11-08T15:00:12.850Z,13.88
2022-11-08T15:02:42.068Z,13.74
2022-11-08T15:05:28.957Z,13.55
2022-11-08T15:07:55.781Z,13.51
2022-11-08T15:10:22.403Z,13.54
2022-11-08T15:12:49.540Z,13.46
2022-11-08T15:15:29.252Z,13.37
2022-11-08T15:18:17.356Z,13.35
2022-11-08T15:20:58.940Z,13.28
2022-11-08T15:23:27.324Z,13.16
2022-11-08T15:26:01.005Z,13.14
2022-11-08T15:28:33.580Z,13.11
2022-11-08T15:31:03.007Z,13.01
2022-11-08T15:33:35.351Z,13.02
2022-11-08T15:36:03.611Z,13.00
2022-11-08T15:38:39.424Z,12.98
2022-11-08T15:41:32.940Z,12.94
2022-11-08T15:44:22.296Z,12.87
2022-11-08T15:46:49.154Z,12.80
2022-11-08T15:49:17.119Z,12.79
2022-11-08T15:51:43.692Z,12.84
2022-11-08T15:54:10.297Z,12.77
2022-11-08T15:56:37.752Z,12.74
2022-11-08T15:59:04.643Z,12.71
2022-11-08T16:01:31.280Z,12.66
2022-11-08T16:03:57.870Z,12.73
2022-11-08T16:06:24.468Z,12.85
2022-11-08T16:08:51.041Z,12.83
2022-11-08T16:11:21.513Z,12.82
2022-11-08T16:13:49.167Z,12.77
2022-11-08T16:16:17.360Z,12.73
2022-11-08T16:18:44.762Z,12.78
2022-11-08T16:21:13.104Z,12.75
2022-11-08T16:23:40.530Z,12.74
2022-11-08T16:26:12.522Z,12.78
2022-11-08T16:28:39.458Z,12.75
2022-11-08T16:31:08.807Z,12.73
2022-11-08T16:33:35.973Z,12.69
2022-11-08T16:36:24.545Z,12.75
2022-11-08T16:38:53.479Z,12.82
2022-11-08T16:41:21.356Z,12.90
2022-11-08T16:43:48.102Z,12.89
2022-11-08T16:46:15.043Z,12.77
2022-11-08T16:48:47.424Z,12.77
2022-11-08T16:51:18.970Z,12.73
2022-11-08T16:53:47.055Z,12.76
2022-11-08T16:56:14.304Z,12.74
2022-11-08T16:58:41.639Z,12.75
2022-11-08T17:01:14.864Z,12.75
2022-11-08T17:03:41.510Z,12.75
2022-11-08T17:06:14.219Z,12.73
2022-11-08T17:08:40.764Z,12.79
2022-11-08T17:11:07.365Z,12.77
2022-11-08T17:13:39.143Z,12.80
2022-11-08T17:16:10.043Z,12.78
2022-11-08T17:18:36.617Z,12.77
2022-11-08T17:21:30.255Z,12.69
2022-11-08T17:23:54.234Z,12.86
2022-11-08T17:26:21.511Z,12.97
2022-11-08T17:28:48.119Z,12.87
2022-11-08T17:31:17.007Z,12.88
2022-11-08T17:33:43.842Z,12.81
2022-11-08T17:36:12.848Z,12.79
2022-11-08T17:38:41.267Z,12.81
2022-11-08T17:41:11.763Z,12.83
2022-11-08T17:43:38.438Z,12.88
2022-11-08T17:46:05.849Z,12.85
2022-11-08T17:48:33.374Z,12.87
2022-11-08T17:51:00.990Z,12.88
2022-11-08T17:53:28.103Z,12.83
2022-11-08T17:55:54.667Z,12.84
2022-11-08T17:58:22.046Z,12.91
2022-11-08T18:00:53.786Z,12.84
2022-11-08T18:03:21.724Z,12.85
2022-11-08T18:05:55.729Z,12.84
2022-11-08T18:08:26.712Z,12.78
2022-11-08T18:10:54.368Z,12.80
2022-11-08T18:13:21.998Z,12.73
2022-11-08T18:15:49.921Z,12.68
2022-11-08T18:18:17.508Z,12.67
2022-11-08T18:20:44.738Z,12.64
2022-11-08T18:23:14.439Z,12.64
2022-11-08T18:25:40.992Z,12.78
2022-11-08T18:28:07.537Z,12.74
2022-11-08T18:30:34.120Z,12.78
2022-11-08T18:33:00.830Z,12.81
2022-11-08T18:35:28.161Z,12.76
2022-11-08T18:37:55.762Z,12.73
2022-11-08T18:40:22.997Z,12.74
2022-11-08T18:42:49.801Z,12.79
2022-11-08T18:45:16.514Z,12.80
2022-11-08T18:47:43.120Z,12.80
2022-11-08T18:50:10.039Z,12.80
2022-11-08T18:52:37.396Z,12.84
2022-11-08T18:55:05.058Z,12.82
2022-11-08T18:57:31.646Z,12.94
2022-11-08T19:00:00.981Z,12.91
2022-11-08T19:02:28.206Z,12.96
2022-11-08T19:04:54.704Z,13.01
2022-11-08T19:07:21.354Z,13.11
2022-11-08T19:09:47.958Z,13.14
2022-11-08T19:12:14.605Z,13.01
2022-11-08T19:14:41.340Z,12.97
2022-11-08T19:17:08.802Z,12.87
2022-11-08T19:19:37.215Z,12.97
2022-11-08T19:22:04.253Z,12.98
2022-11-08T19:24:30.861Z,12.97
2022-11-08T19:26:57.410Z,13.08
2022-11-08T19:29:23.985Z,13.02
2022-11-08T19:31:50.532Z,13.01
2022-11-08T19:34:17.104Z,12.98
2022-11-08T19:36:43.730Z,13.03
2022-11-08T19:39:11.980Z,13.04
2022-11-08T19:41:39.728Z,13.04
2022-11-08T19:44:07.227Z,12.98
2022-11-08T19:46:34.355Z,13.02
2022-11-08T19:49:03.170Z,13.07
2022-11-08T19:51:32.167Z,13.05
2022-11-08T19:54:10.718Z,13.08
2022-11-08T19:59:24.684Z,13.07
2022-11-08T20:01:51.375Z,13.07
2022-11-08T20:04:18.659Z,13.00
2022-11-08T20:06:46.290Z,13.02
2022-11-08T20:09:13.063Z,13.02
2022-11-08T20:11:41.064Z,13.01
2022-11-08T20:14:08.820Z,13.02
2022-11-08T20:16:40.050Z,12.97
2022-11-08T20:19:11.934Z,13.05
2022-11-08T20:21:41.590Z,12.99
2022-11-08T20:24:10.683Z,13.04
2022-11-08T20:26:38.619Z,12.96
2022-11-08T20:29:07.242Z,12.92
2022-11-08T20:31:34.459Z,12.85
2022-11-08T20:34:01.843Z,12.78
2022-11-08T20:36:33.130Z,12.77
2022-11-08T20:39:06.627Z,12.73
2022-11-08T20:41:35.703Z,12.66
2022-11-08T20:44:02.678Z,12.57
2022-11-08T20:46:29.719Z,12.49
2022-11-08T20:49:00.289Z,12.49
2022-11-08T20:51:27.851Z,12.43
2022-11-08T20:53:56.166Z,12.44
2022-11-08T20:56:23.866Z,12.52
2022-11-08T20:58:52.003Z,12.57
2022-11-08T21:01:21.278Z,12.49
2022-11-08T21:03:48.325Z,12.47
2022-11-08T21:06:17.550Z,12.58
2022-11-08T21:09:06.173Z,12.52
2022-11-08T21:11:31.274Z,12.57
2022-11-08T21:13:58.296Z,12.58
2022-11-08T21:16:47.073Z,12.53
2022-11-08T21:19:11.523Z,12.50
2022-11-08T21:21:38.486Z,12.47
2022-11-08T21:24:05.243Z,12.43
2022-11-08T21:26:36.242Z,12.37
2022-11-08T21:29:04.203Z,12.33
2022-11-08T21:31:30.807Z,12.31
2022-11-08T21:33:57.604Z,12.26
2022-11-08T21:36:26.775Z,12.25
2022-11-08T21:38:54.166Z,12.29
2022-11-08T21:41:20.988Z,12.25
2022-11-08T21:43:47.768Z,12.24
2022-11-08T21:46:23.455Z,12.25
2022-11-08T21:48:55.823Z,12.27
2022-11-08T21:51:22.534Z,12.23
2022-11-08T21:53:55.169Z,12.20
2022-11-08T21:56:29.680Z,12.15
2022-11-08T21:58:56.891Z,12.11
2022-11-08T22:01:29.631Z,12.25
2022-11-08T22:03:57.397Z,12.18
2022-11-08T22:06:24.192Z,12.17
2022-11-08T22:08:51.032Z,12.21
2022-11-08T22:11:17.850Z,12.16
2022-11-08T22:13:44.538Z,12.24
2022-11-08T22:16:11.315Z,12.21
2022-11-08T22:21:41.072Z,12.22
2022-11-08T22:24:11.209Z,12.20
2022-11-08T22:26:38.367Z,12.16
2022-11-08T22:29:05.347Z,12.06
2022-11-08T22:31:31.963Z,12.07
2022-11-08T22:33:58.777Z,12.00
2022-11-08T22:36:25.672Z,11.95
2022-11-08T22:38:52.255Z,11.96
2022-11-08T22:41:20.372Z,12.00
2022-11-08T22:43:47.921Z,11.99
2022-11-08T22:46:15.202Z,11.95
2022-11-08T22:48:41.797Z,11.95
2022-11-08T22:51:09.000Z,11.90
2022-11-08T22:53:36.233Z,11.89
2022-11-08T22:56:08.302Z,11.89
2022-11-08T22:58:37.626Z,11.86
2022-11-08T23:01:04.633Z,11.84
2022-11-08T23:03:31.159Z,11.82
2022-11-08T23:05:57.764Z,11.84
2022-11-08T23:08:26.222Z,11.90
2022-11-08T23:11:11.939Z,11.80
2022-11-08T23:13:57.456Z,11.77
2022-11-08T23:16:37.658Z,11.75
2022-11-08T23:19:29.139Z,11.70
2022-11-08T23:22:14.470Z,11.71
2022-11-08T23:24:42.973Z,11.70
2022-11-08T23:27:29.579Z,11.73
2022-11-08T23:30:15.026Z,11.73
2022-11-08T23:32:43.865Z,11.69
2022-11-08T23:35:11.815Z,11.66
2022-11-08T23:37:38.929Z,11.68
2022-11-08T23:40:25.723Z,11.73
2022-11-08T23:43:24.360Z,11.70
2022-11-08T23:45:51.626Z,11.69
2022-11-08T23:48:18.256Z,11.71
2022-11-08T23:50:52.766Z,11.71
2022-11-08T23:53:28.029Z,11.71
2022-11-08T23:55:54.778Z,11.76
2022-11-08T23:58:22.507Z,11.78
